To NAV CANADA Home Page Login to a new session Search on AWWS site Feedback and Comments Disclaimer Vers la page française équivalente Tips FAQ What's new on the site To the Forecasts and Observations / NOTAM section To "File a Flight Plan" website Publications and other links Update of the User's profile FIC Telephone Numbers My Weather Data Folder Route Weather Data Regional Weather Data Local Weather Data To the Forecasts and Observations / NOTAM section
Request Generated 04/19/2014 at 22:07:21 UTC . Weather information available at that time is displayed.

METAR/TAF

TORONTO/BUTTONVILLE MUNICIPAL/ON    

METAR CYKZ 192200Z 18009KT 15SM FEW260 11/M01 A3041 RMK CI0 SLP303=
METAR CYKZ 192100Z 01008KT 15SM FEW260 12/M02 A3039 RMK CI0 SLP298=
METAR CYKZ 192000Z 07004KT 15SM FEW028 FEW190 FEW260 12/M01 A3041 RMK CF1AC1CI1 CUFRA TR AC TR CI TR SLP305=

TAF CYKZ 191738Z 1918/2006 01010KT P6SM FEW030
BECMG 1922/1924 04005KT
RMK NXT FCST BY 200000Z=
Your time UTC time
Weather data provided by Environment Canada and NAV CANADA